Time;durP1;ratioP1;P1;durP2;ratioP2;P2;SDS_P1;SDS_P2;PMS_P1;PMS_P2;Temp;Humidity;BMP_temperature;BMP_pressure;BME280_temperature;BME280_humidity;BME280_pressure;Samples;Min_cycle;Max_cycle;Signal;HPM_P1;HPM_P2
2022/03/16 00:00:21;;;;;;;28.92;24.30;;;;;;;7.21;76.14;101458.97;4145110;28;20088;-66
2022/03/16 00:02:24;;;;;;;28.85;24.52;;;;;;;7.14;76.20;101458.69;4147356;28;20041;-66
2022/03/16 00:04:27;;;;;;;27.85;23.15;;;;;;;7.13;76.33;101467.25;4147676;28;20046;-67
2022/03/16 00:06:30;;;;;;;28.25;22.73;;;;;;;7.16;76.13;101469.97;4136065;28;20070;-66
2022/03/16 00:08:34;;;;;;;28.08;23.13;;;;;;;7.18;76.35;101471.75;4139284;28;20392;-66
2022/03/16 00:10:37;;;;;;;26.30;21.80;;;;;;;7.16;75.85;101472.56;4139412;28;20521;-65
2022/03/16 00:12:41;;;;;;;31.13;24.25;;;;;;;7.16;76.22;101472.56;4131097;28;20050;-66
2022/03/16 00:14:44;;;;;;;31.33;23.42;;;;;;;7.16;75.59;101471.69;4139345;28;20562;-66
2022/03/16 00:16:47;;;;;;;30.23;24.95;;;;;;;7.11;75.43;101470.59;4140533;28;20042;-66
2022/03/16 00:18:50;;;;;;;28.33;23.38;;;;;;;7.20;74.84;101465.84;4147743;28;20034;-66
2022/03/16 00:20:53;;;;;;;32.15;26.23;;;;;;;7.04;74.84;101466.88;4147542;28;20467;-66
2022/03/16 00:22:56;;;;;;;31.98;26.02;;;;;;;7.04;74.74;101465.97;4147079;28;20558;-66
2022/03/16 00:25:01;;;;;;;35.85;29.45;;;;;;;7.04;74.81;101459.09;4141965;28;20100;-65
2022/03/16 00:27:04;;;;;;;37.78;29.55;;;;;;;7.04;74.88;101465.97;4142798;28;20048;-65
2022/03/16 00:29:07;;;;;;;35.85;28.25;;;;;;;6.96;75.14;101463.03;4146276;28;20109;-65
2022/03/16 00:31:10;;;;;;;43.30;30.20;;;;;;;6.92;75.79;101455.97;4146337;28;20045;-65
2022/03/16 00:33:13;;;;;;;39.13;30.13;;;;;;;6.88;76.37;101465.28;4147089;28;20041;-66
2022/03/16 00:35:15;;;;;;;40.70;29.50;;;;;;;6.90;76.21;101467.94;4141932;28;20046;-65
2022/03/16 00:37:18;;;;;;;38.22;30.38;;;;;;;7.05;76.27;101463.44;4144649;28;20038;-65
2022/03/16 00:39:21;;;;;;;40.65;31.90;;;;;;;7.12;75.37;101467.19;4147484;28;20037;-65
2022/03/16 00:41:25;;;;;;;43.22;31.00;;;;;;;7.09;75.67;101459.31;4147529;28;20046;-65
2022/03/16 00:43:27;;;;;;;44.67;32.05;;;;;;;6.94;76.23;101464.69;4145555;28;20049;-65
2022/03/16 00:45:30;;;;;;;41.33;29.88;;;;;;;6.88;76.74;101467.88;4138009;28;20050;-65
2022/03/16 00:47:33;;;;;;;42.10;30.05;;;;;;;6.87;76.46;101468.69;4138023;28;20578;-65
2022/03/16 00:49:35;;;;;;;36.22;27.77;;;;;;;6.87;77.11;101463.50;4145981;28;20100;-65
2022/03/16 00:51:39;;;;;;;42.55;30.63;;;;;;;6.88;76.88;101467.88;4145213;28;20495;-65
2022/03/16 00:53:45;;;;;;;45.88;30.85;;;;;;;6.86;76.84;101469.47;4154222;28;20081;-65
2022/03/16 00:55:48;;;;;;;40.03;28.90;;;;;;;6.81;76.78;101461.53;4138496;28;20116;-65
2022/03/16 00:57:52;;;;;;;34.45;26.13;;;;;;;6.86;76.76;101463.44;4138750;28;20305;-65
2022/03/16 00:59:55;;;;;;;41.83;30.70;;;;;;;6.87;76.41;101468.69;4141996;28;20495;-65
2022/03/16 01:01:58;;;;;;;39.08;29.77;;;;;;;6.89;76.72;101472.25;4141176;28;20046;-65
2022/03/16 01:04:01;;;;;;;40.30;30.48;;;;;;;6.89;76.70;101472.25;4135568;28;20046;-65
2022/03/16 01:06:04;;;;;;;38.58;28.88;;;;;;;6.88;76.19;101467.88;4144804;28;20741;-66
2022/03/16 01:08:07;;;;;;;35.08;27.10;;;;;;;6.89;76.29;101472.25;4153922;28;20096;-66
2022/03/16 01:10:10;;;;;;;31.65;26.35;;;;;;;6.87;76.40;101475.56;4144951;28;20103;-66
2022/03/16 01:12:12;;;;;;;34.17;25.92;;;;;;;6.85;76.51;101467.75;4143837;28;20116;-66
2022/03/16 01:14:17;;;;;;;34.33;27.35;;;;;;;6.87;76.12;101467.81;4149250;28;20045;-66
2022/03/16 01:16:19;;;;;;;33.38;25.00;;;;;;;6.79;75.91;101462.25;4142787;28;20050;-65
2022/03/16 01:18:22;;;;;;;29.42;22.60;;;;;;;6.75;76.06;101462.97;4144003;28;20041;-65
2022/03/16 01:20:25;;;;;;;34.15;22.30;;;;;;;6.72;76.36;101460.25;4141743;28;20108;-65
2022/03/16 01:22:28;;;;;;;44.85;26.65;;;;;;;6.73;76.07;101464.56;4139840;28;20069;-66
2022/03/16 01:24:30;;;;;;;79.95;26.42;;;;;;;6.78;75.97;101465.69;4141730;28;20046;-66
2022/03/16 01:26:34;;;;;;;34.97;24.90;;;;;;;6.70;76.16;101467.94;4148282;28;20085;-66
2022/03/16 01:28:39;;;;;;;36.83;23.88;;;;;;;6.68;76.56;101466.94;4158078;28;20045;-66
2022/03/16 01:30:44;;;;;;;31.75;23.13;;;;;;;6.69;76.19;101457.50;4146678;28;20455;-65
2022/03/16 01:32:47;;;;;;;24.77;20.60;;;;;;;6.66;76.34;101459.94;4134490;28;20046;-65
2022/03/16 01:34:50;;;;;;;26.10;19.90;;;;;;;6.64;76.53;101460.78;4142076;28;20096;-65
2022/03/16 01:36:52;;;;;;;36.80;25.67;;;;;;;6.66;76.39;101471.19;4140579;28;20599;-65
2022/03/16 01:38:55;;;;;;;35.80;21.30;;;;;;;6.66;76.49;101463.44;4148634;28;20141;-65
2022/03/16 01:40:58;;;;;;;33.60;23.48;;;;;;;6.66;76.10;101472.84;4137514;28;20046;-65
2022/03/16 01:43:01;;;;;;;40.38;23.73;;;;;;;6.59;76.31;101477.75;4139908;28;20125;-66
2022/03/16 01:45:04;;;;;;;99.00;23.05;;;;;;;6.67;76.17;101470.34;4145555;28;20381;-66
2022/03/16 01:47:09;;;;;;;106.50;24.20;;;;;;;6.85;74.55;101472.91;4141889;28;20077;-65
2022/03/16 01:49:14;;;;;;;86.18;23.70;;;;;;;6.66;74.45;101473.75;4142017;28;20042;-66
2022/03/16 01:51:18;;;;;;;88.85;23.38;;;;;;;6.52;74.75;101470.50;4153980;28;20140;-65
2022/03/16 01:53:21;;;;;;;93.63;23.95;;;;;;;6.46;74.96;101480.56;4133613;28;20039;-66
2022/03/16 01:55:24;;;;;;;102.45;23.10;;;;;;;6.40;75.10;101475.13;4134424;28;20054;-66
2022/03/16 01:57:27;;;;;;;104.10;25.33;;;;;;;6.25;75.49;101473.56;4145261;28;20508;-66
2022/03/16 01:59:30;;;;;;;61.10;24.67;;;;;;;6.16;76.04;101479.97;4147291;28;20483;-65
2022/03/16 02:01:33;;;;;;;66.10;23.65;;;;;;;6.13;76.57;101475.53;4147104;28;20048;-66
2022/03/16 02:03:38;;;;;;;46.42;22.30;;;;;;;6.16;76.25;101480.84;4162852;28;20045;-65
2022/03/16 02:05:40;;;;;;;38.37;21.50;;;;;;;6.20;75.83;101482.78;4157135;28;20061;-66
2022/03/16 02:07:44;;;;;;;35.88;21.10;;;;;;;6.28;75.40;101486.63;4141680;28;20281;-66
2022/03/16 02:09:47;;;;;;;41.00;22.42;;;;;;;6.13;75.85;101479.84;4145060;28;20088;-66
2022/03/16 02:11:50;;;;;;;22.48;18.92;;;;;;;6.09;76.21;101481.41;4134370;28;20096;-66
2022/03/16 02:13:52;;;;;;;22.92;18.92;;;;;;;6.07;76.46;101480.41;4147516;28;20045;-66
2022/03/16 02:15:55;;;;;;;81.47;24.85;;;;;;;6.13;76.48;101475.53;4144553;28;20401;-66
2022/03/16 02:17:58;;;;;;;33.83;19.25;;;;;;;6.31;75.51;101469.50;4141812;28;20049;-66
2022/03/16 02:20:02;;;;;;;32.45;21.38;;;;;;;6.23;75.10;101469.13;4135011;28;20035;-65
2022/03/16 02:22:08;;;;;;;31.05;21.50;;;;;;;6.21;74.98;101469.06;4139365;28;20118;-66
2022/03/16 02:24:13;;;;;;;33.00;22.13;;;;;;;6.18;75.03;101475.78;4142688;28;20096;-66
2022/03/16 02:26:15;;;;;;;26.55;20.40;;;;;;;6.01;76.17;101474.97;4148502;28;20057;-65
2022/03/16 02:28:19;;;;;;;22.40;18.10;;;;;;;6.00;76.62;101470.59;4146278;28;20500;-66
2022/03/16 02:30:22;;;;;;;21.85;16.98;;;;;;;6.03;76.67;101473.31;4148037;28;20038;-65
2022/03/16 02:32:25;;;;;;;36.47;23.60;;;;;;;6.06;76.84;101478.63;4142215;28;20050;-65
2022/03/16 02:34:28;;;;;;;42.83;23.38;;;;;;;6.06;76.49;101476.06;4145963;28;20045;-66
2022/03/16 02:36:31;;;;;;;32.72;22.30;;;;;;;6.11;76.29;101472.00;4148487;28;20046;-66
2022/03/16 02:38:34;;;;;;;39.78;25.83;;;;;;;6.23;75.45;101467.44;4148071;28;20551;-66
2022/03/16 02:40:38;;;;;;;37.55;23.40;;;;;;;6.13;75.83;101470.38;4140732;28;20427;-66
2022/03/16 02:42:41;;;;;;;37.38;23.23;;;;;;;6.08;76.17;101469.28;4132191;28;20625;-66
2022/03/16 02:44:44;;;;;;;28.85;21.73;;;;;;;6.03;76.25;101473.31;4132661;28;20058;-66
2022/03/16 02:46:47;;;;;;;28.25;21.83;;;;;;;6.04;76.48;101475.09;4132467;28;20056;-66
2022/03/16 02:48:50;;;;;;;23.50;20.00;;;;;;;6.09;76.63;101483.97;4137518;28;20033;-66
2022/03/16 02:50:53;;;;;;;32.30;23.00;;;;;;;6.07;76.33;101478.69;4140246;28;20035;-66
2022/03/16 02:52:55;;;;;;;26.23;21.38;;;;;;;6.05;76.40;101487.22;4148202;28;20042;-66
2022/03/16 02:55:18;;;;;;;31.55;22.30;;;;;;;5.99;76.16;101482.63;4147301;28;20038;-66
2022/03/16 02:57:22;;;;;;;30.02;23.90;;;;;;;5.93;76.09;101483.16;4142599;28;20050;-66
2022/03/16 02:59:25;;;;;;;26.27;21.37;;;;;;;5.87;76.38;101477.72;4145508;28;20527;-66
2022/03/16 03:01:29;;;;;;;28.88;22.88;;;;;;;5.86;76.26;101470.78;4148407;28;20100;-66
2022/03/16 03:03:32;;;;;;;27.33;22.15;;;;;;;5.85;76.56;101481.91;4148093;28;20065;-66
2022/03/16 03:05:35;;;;;;;29.38;24.30;;;;;;;5.87;76.34;101471.66;4147422;28;20400;-66
2022/03/16 03:07:38;;;;;;;27.83;21.63;;;;;;;5.91;76.08;101471.91;4140210;28;20070;-66
2022/03/16 03:09:41;;;;;;;27.02;22.55;;;;;;;5.92;76.21;101476.22;4133024;28;20093;-66
2022/03/16 03:11:43;;;;;;;27.48;21.38;;;;;;;5.95;76.22;101463.47;4146923;28;20045;-65
2022/03/16 03:13:47;;;;;;;29.95;23.70;;;;;;;6.02;76.00;101466.41;4147698;28;20053;-66
2022/03/16 03:15:50;;;;;;;29.50;22.92;;;;;;;6.09;76.09;101464.19;4147096;28;20038;-66
2022/03/16 03:17:53;;;;;;;28.83;23.13;;;;;;;6.15;75.69;101458.44;4146175;28;20041;-66
2022/03/16 03:19:55;;;;;;;29.38;23.52;;;;;;;6.15;75.77;101460.13;4140002;28;20049;-66
2022/03/16 03:21:58;;;;;;;27.52;22.13;;;;;;;6.12;76.03;101463.47;4148046;28;20038;-66
2022/03/16 03:24:01;;;;;;;26.83;21.95;;;;;;;6.15;76.22;101468.78;4145243;28;20103;-66
2022/03/16 03:26:09;;;;;;;28.30;23.33;;;;;;;6.16;76.39;101475.69;4140429;28;20053;-66
2022/03/16 03:28:12;;;;;;;29.50;23.33;;;;;;;6.18;76.08;101468.03;4143378;28;20050;-66
2022/03/16 03:30:16;;;;;;;28.52;21.92;;;;;;;6.21;76.09;101474.22;4146739;28;20096;-66
2022/03/16 03:32:19;;;;;;;28.70;22.67;;;;;;;6.19;75.90;101478.44;4145063;28;20085;-66
2022/03/16 03:34:22;;;;;;;28.15;23.83;;;;;;;6.25;75.83;101473.56;4146904;28;20096;-66
2022/03/16 03:36:24;;;;;;;27.58;23.38;;;;;;;6.27;75.45;101482.25;4144858;28;20096;-66
2022/03/16 03:38:27;;;;;;;28.85;22.83;;;;;;;6.29;75.71;101483.25;4147095;28;20042;-66
2022/03/16 03:40:30;;;;;;;29.42;24.77;;;;;;;6.30;75.24;101481.53;4142032;28;20092;-66
2022/03/16 03:42:32;;;;;;;30.92;24.75;;;;;;;6.32;75.29;101484.19;4140205;28;20046;-66
2022/03/16 03:44:37;;;;;;;26.48;22.25;;;;;;;6.33;75.11;101488.56;4146138;28;20451;-66
2022/03/16 03:46:41;;;;;;;29.60;22.75;;;;;;;6.28;75.36;101481.47;4137094;28;20043;-65
2022/03/16 03:48:44;;;;;;;26.50;21.70;;;;;;;6.31;75.46;101479.81;4137835;28;20056;-66
2022/03/16 03:50:46;;;;;;;32.15;23.75;;;;;;;6.27;75.02;101479.69;4131618;28;20049;-66
2022/03/16 03:52:49;;;;;;;28.85;24.02;;;;;;;6.31;75.48;101485.00;4129934;28;20476;-66
2022/03/16 03:54:52;;;;;;;29.00;23.67;;;;;;;6.30;75.46;101484.13;4131332;28;20077;-66
2022/03/16 03:56:55;;;;;;;27.05;20.42;;;;;;;6.31;75.59;101487.56;4144842;28;20060;-66
2022/03/16 03:58:57;;;;;;;32.20;24.88;;;;;;;6.36;75.17;101489.56;4137149;28;20046;-65
2022/03/16 04:01:00;;;;;;;28.17;24.48;;;;;;;6.39;74.92;101489.72;4135090;28;20096;-66
2022/03/16 04:03:04;;;;;;;31.35;24.20;;;;;;;6.37;75.07;101488.75;4147208;28;20108;-66
2022/03/16 04:05:07;;;;;;;30.10;24.20;;;;;;;6.35;74.97;101492.06;4146693;28;20056;-66
2022/03/16 04:07:10;;;;;;;32.75;25.67;;;;;;;6.34;75.08;101496.38;4142498;28;20046;-66
2022/03/16 04:09:13;;;;;;;29.90;25.02;;;;;;;6.33;75.20;101493.72;4142837;28;20054;-66
2022/03/16 04:11:15;;;;;;;28.20;23.55;;;;;;;6.40;74.88;101496.66;4147624;28;20088;-66
2022/03/16 04:13:18;;;;;;;29.52;23.77;;;;;;;6.46;74.54;101496.06;4147123;28;20045;-65
2022/03/16 04:15:21;;;;;;;31.38;25.20;;;;;;;6.41;74.74;101489.78;4146398;28;20104;-66
2022/03/16 04:17:23;;;;;;;32.58;24.77;;;;;;;6.39;74.54;101499.16;4141501;28;20121;-66
2022/03/16 04:19:28;;;;;;;34.17;26.15;;;;;;;6.43;74.31;101498.50;4146422;28;20232;-66
2022/03/16 04:21:31;;;;;;;31.98;25.65;;;;;;;6.39;74.58;101499.16;4147807;28;20057;-66
2022/03/16 04:23:33;;;;;;;28.70;22.95;;;;;;;6.38;74.82;101499.97;4146041;28;20037;-66
2022/03/16 04:25:36;;;;;;;31.88;25.55;;;;;;;6.37;74.72;101504.25;4138908;28;20046;-66
2022/03/16 04:27:39;;;;;;;32.53;24.95;;;;;;;6.34;74.94;101498.94;4131445;28;20412;-66
2022/03/16 04:29:41;;;;;;;31.33;23.52;;;;;;;6.33;74.82;101502.34;4131314;28;20104;-66
2022/03/16 04:31:44;;;;;;;30.85;23.70;;;;;;;6.35;75.02;101505.00;4131271;28;20053;-66
2022/03/16 04:33:47;;;;;;;28.52;23.35;;;;;;;6.39;75.19;101504.34;4131944;28;20046;-66
2022/03/16 04:35:51;;;;;;;30.90;25.40;;;;;;;6.41;75.44;101508.75;4147136;28;20045;-66
2022/03/16 04:37:53;;;;;;;30.60;25.00;;;;;;;6.41;74.99;101507.84;4147640;28;20054;-65
2022/03/16 04:39:56;;;;;;;27.52;23.17;;;;;;;6.40;75.21;101503.53;4147528;28;20289;-68
2022/03/16 04:41:59;;;;;;;30.83;24.73;;;;;;;6.43;74.62;101501.97;4147210;28;20105;-66
2022/03/16 04:44:04;;;;;;;28.98;24.08;;;;;;;6.42;74.95;101504.47;4147729;28;20124;-66
2022/03/16 04:46:07;;;;;;;32.33;25.10;;;;;;;6.46;75.04;101506.41;4142531;28;20037;-66
2022/03/16 04:48:11;;;;;;;32.42;24.45;;;;;;;6.44;74.70;101508.03;4144182;28;20339;-66
2022/03/16 04:50:14;;;;;;;31.60;25.80;;;;;;;6.39;74.87;101502.63;4141743;28;20421;-66
2022/03/16 04:52:18;;;;;;;27.30;23.65;;;;;;;6.42;74.91;101509.63;4147062;28;20293;-66
2022/03/16 04:54:20;;;;;;;28.10;23.70;;;;;;;6.40;74.77;101506.13;4144683;28;20510;-66
2022/03/16 04:56:23;;;;;;;27.17;21.73;;;;;;;6.41;74.95;101507.84;4146923;28;20300;-66
2022/03/16 04:58:26;;;;;;;29.05;23.77;;;;;;;6.41;75.52;101505.28;4144709;28;20050;-66
2022/03/16 05:00:29;;;;;;;26.58;22.02;;;;;;;6.39;75.47;101512.09;4138444;28;20581;-66
2022/03/16 05:02:31;;;;;;;30.15;23.83;;;;;;;6.44;75.74;101513.19;4149671;28;20042;-66
2022/03/16 05:04:34;;;;;;;29.65;22.40;;;;;;;6.44;75.59;101515.78;4141414;28;20069;-67
2022/03/16 05:06:38;;;;;;;31.93;24.90;;;;;;;6.42;75.37;101522.56;4148698;28;20046;-66
2022/03/16 05:08:45;;;;;;;29.65;23.35;;;;;;;6.40;75.65;101519.03;4136426;28;20046;-67
2022/03/16 05:10:48;;;;;;;30.98;24.58;;;;;;;6.40;75.47;101516.44;4146630;28;20065;-67
2022/03/16 05:12:50;;;;;;;29.55;24.50;;;;;;;6.39;75.37;101515.53;4141477;28;20512;-66
2022/03/16 05:14:53;;;;;;;28.05;23.08;;;;;;;6.40;75.61;101517.31;4148619;28;20034;-66
2022/03/16 05:16:56;;;;;;;26.70;22.05;;;;;;;6.42;75.54;101515.69;4147296;28;20049;-67
2022/03/16 05:18:59;;;;;;;29.27;23.73;;;;;;;6.44;76.01;101518.38;4143711;28;20073;-67
2022/03/16 05:21:03;;;;;;;29.20;23.80;;;;;;;6.52;75.03;101516.16;4147687;28;20038;-66
2022/03/16 05:23:06;;;;;;;29.85;24.95;;;;;;;6.54;74.50;101514.50;4135735;28;20100;-66
2022/03/16 05:25:11;;;;;;;27.38;20.88;;;;;;;6.45;74.96;101514.94;4142446;28;20171;-66
2022/03/16 05:27:14;;;;;;;29.23;24.17;;;;;;;6.39;75.09;101519.81;4148006;28;20048;-67
2022/03/16 05:29:17;;;;;;;28.63;24.10;;;;;;;6.40;75.20;101516.44;4140995;28;20088;-66
2022/03/16 05:31:20;;;;;;;29.42;24.48;;;;;;;6.47;74.75;101515.94;4150914;28;20527;-67
2022/03/16 05:33:23;;;;;;;30.65;24.60;;;;;;;6.43;75.07;101520.03;4145344;28;20459;-66
2022/03/16 05:35:26;;;;;;;30.42;24.70;;;;;;;6.41;74.89;101521.69;4148778;28;20042;-67
2022/03/16 05:37:29;;;;;;;30.65;25.10;;;;;;;6.42;75.04;101514.81;4147732;28;20058;-66
2022/03/16 05:39:31;;;;;;;30.30;24.83;;;;;;;6.42;75.18;101519.97;4142526;28;20050;-66
2022/03/16 05:41:35;;;;;;;33.15;26.08;;;;;;;6.41;75.13;101520.78;4147857;28;20448;-66
2022/03/16 05:43:38;;;;;;;30.03;22.70;;;;;;;6.40;75.08;101522.47;4148200;28;20069;-66
2022/03/16 05:45:41;;;;;;;27.73;22.13;;;;;;;6.44;75.57;101518.38;4141489;28;20331;-66
2022/03/16 05:47:44;;;;;;;34.05;26.15;;;;;;;6.48;75.27;101515.09;4141010;28;20045;-67
2022/03/16 05:49:46;;;;;;;30.05;24.60;;;;;;;6.47;75.41;101506.47;4140575;28;20676;-66
2022/03/16 05:51:49;;;;;;;27.00;22.42;;;;;;;6.50;75.03;101510.00;4139529;28;20042;-67
2022/03/16 05:53:52;;;;;;;30.45;24.60;;;;;;;6.53;75.18;101513.63;4137959;28;20046;-66
2022/03/16 05:55:54;;;;;;;26.75;21.58;;;;;;;6.54;75.21;101515.41;4144620;28;20037;-66
2022/03/16 05:57:58;;;;;;;27.20;21.15;;;;;;;6.60;75.38;101518.28;4148243;28;20096;-65
2022/03/16 06:00:01;;;;;;;30.02;24.02;;;;;;;6.61;74.90;101517.47;4146996;28;20550;-66
2022/03/16 06:02:06;;;;;;;28.73;23.23;;;;;;;6.62;75.48;101523.53;4149059;28;20061;-66
2022/03/16 06:04:08;;;;;;;31.30;24.95;;;;;;;6.61;75.91;101520.06;4147978;28;20064;-66
2022/03/16 06:06:11;;;;;;;29.40;23.15;;;;;;;6.63;75.23;101526.16;4147186;28;20053;-66
2022/03/16 06:08:14;;;;;;;30.52;23.38;;;;;;;6.62;75.77;101526.97;4144467;28;20034;-66
2022/03/16 06:10:18;;;;;;;29.35;22.88;;;;;;;6.67;75.90;101524.59;4145033;28;20117;-66
2022/03/16 06:12:20;;;;;;;32.00;23.30;;;;;;;6.70;75.98;101529.94;4141116;28;20112;-66
2022/03/16 06:14:24;;;;;;;31.92;25.25;;;;;;;6.73;75.75;101526.59;4146896;28;20132;-65
2022/03/16 06:16:28;;;;;;;;;;;;;;;6.59;75.85;101532.00;4142459;28;20137;-65
2022/03/16 06:18:30;;;;;;;31.13;23.77;;;;;;;6.64;76.33;101543.47;4146992;28;19944;-65
2022/03/16 06:20:35;;;;;;;32.13;24.83;;;;;;;6.70;76.29;101531.63;4141539;28;20051;-65
2022/03/16 06:22:37;;;;;;;31.10;24.73;;;;;;;6.71;75.81;101538.56;4131910;28;20084;-66
2022/03/16 06:24:40;;;;;;;32.78;24.35;;;;;;;6.74;75.63;101538.72;4140898;28;20437;-66
2022/03/16 06:26:43;;;;;;;31.55;24.33;;;;;;;6.77;75.51;101538.84;4145973;28;20057;-65
2022/03/16 06:28:45;;;;;;;29.20;23.50;;;;;;;6.80;75.62;101537.31;4140830;28;20104;-66
2022/03/16 06:30:49;;;;;;;27.75;22.20;;;;;;;6.83;75.62;101546.88;4139518;28;20046;-66
2022/03/16 06:32:52;;;;;;;31.38;23.35;;;;;;;6.83;75.93;101539.13;4134497;28;20111;-66
2022/03/16 06:34:55;;;;;;;32.90;27.02;;;;;;;6.84;75.54;101540.03;4140330;28;20500;-66
2022/03/16 06:36:58;;;;;;;31.20;25.05;;;;;;;6.85;75.92;101542.69;4148424;28;20116;-66
2022/03/16 06:39:00;;;;;;;30.88;23.30;;;;;;;6.85;75.51;101546.97;4140581;28;20042;-66
2022/03/16 06:41:03;;;;;;;29.73;23.70;;;;;;;6.88;75.54;101536.75;4143478;28;20108;-66
2022/03/16 06:43:06;;;;;;;30.48;24.02;;;;;;;6.85;75.76;101541.78;4141861;28;20051;-66
2022/03/16 06:45:09;;;;;;;32.95;25.45;;;;;;;6.90;75.40;101538.59;4146431;28;20045;-66
2022/03/16 06:47:13;;;;;;;34.22;25.90;;;;;;;6.94;75.59;101532.78;4148532;28;20452;-66
2022/03/16 06:49:16;;;;;;;32.53;26.83;;;;;;;6.96;75.39;101533.72;4140120;28;20529;-65
2022/03/16 06:51:18;;;;;;;29.63;22.65;;;;;;;7.01;74.82;101544.28;4142852;28;20116;-66
2022/03/16 06:53:21;;;;;;;27.40;21.35;;;;;;;7.06;74.66;101545.38;4147077;28;20057;-66
2022/03/16 06:55:25;;;;;;;32.65;25.58;;;;;;;7.10;74.51;101549.88;4138571;28;20381;-66
2022/03/16 06:57:27;;;;;;;31.55;25.75;;;;;;;7.15;74.63;101552.66;4147784;28;20050;-66
2022/03/16 06:59:36;;;;;;;29.48;23.48;;;;;;;7.17;74.18;101548.47;4146347;28;20089;-66
2022/03/16 07:01:39;;;;;;;32.47;24.83;;;;;;;7.17;74.51;101551.06;4140194;28;20045;-66
2022/03/16 07:03:44;;;;;;;28.00;20.80;;;;;;;7.22;74.81;101554.72;4148095;28;20038;-66
2022/03/16 07:05:46;;;;;;;29.92;22.95;;;;;;;7.21;74.68;101558.13;4147578;28;20116;-66
2022/03/16 07:07:49;;;;;;;31.42;24.75;;;;;;;7.24;74.92;101557.38;4148445;28;20041;-66
2022/03/16 07:09:52;;;;;;;27.92;22.77;;;;;;;7.26;75.50;101553.19;4145704;28;20057;-66
2022/03/16 07:11:55;;;;;;;24.98;20.40;;;;;;;7.14;75.87;101551.78;4145910;28;20120;-66
2022/03/16 07:16:18;;;;;;;28.20;20.70;;;;;;;7.26;75.57;101556.63;4131703;28;20100;-66
2022/03/16 07:18:23;;;;;;;23.85;19.08;;;;;;;7.25;75.10;101559.16;4130925;28;20050;-65
2022/03/16 07:20:27;;;;;;;24.48;18.35;;;;;;;7.23;74.73;101556.50;4140462;28;20508;-66
2022/03/16 07:22:30;;;;;;;23.05;17.95;;;;;;;7.20;73.73;101566.72;4145349;28;20115;-66
2022/03/16 07:24:53;;;;;;;22.08;18.38;;;;;;;7.24;73.97;101563.47;4146796;28;20057;-66
2022/03/16 07:26:56;;;;;;;23.50;17.92;;;;;;;7.38;74.41;101566.66;4145781;28;20041;-65
2022/03/16 07:28:58;;;;;;;24.70;19.65;;;;;;;7.44;73.89;101566.03;4141506;28;20531;-65
2022/03/16 07:31:01;;;;;;;22.90;19.08;;;;;;;7.50;73.99;101571.47;4148076;28;20100;-65
2022/03/16 07:33:05;;;;;;;26.60;21.30;;;;;;;7.58;73.58;101567.56;4147700;28;20041;-65
2022/03/16 07:35:09;;;;;;;24.85;19.45;;;;;;;7.60;73.17;101571.06;4146791;28;20503;-66
2022/03/16 07:37:13;;;;;;;24.08;20.15;;;;;;;7.54;73.74;101570.81;4143093;28;20512;-66
2022/03/16 07:39:16;;;;;;;26.95;21.67;;;;;;;7.57;74.13;101576.13;4141917;28;20058;-66
2022/03/16 07:41:19;;;;;;;28.83;21.65;;;;;;;7.53;74.28;101587.16;4139764;28;20389;-66
2022/03/16 07:43:21;;;;;;;28.48;22.65;;;;;;;7.51;74.09;101584.50;4143645;28;20455;-66
2022/03/16 07:45:26;;;;;;;32.42;22.60;;;;;;;7.42;74.40;101584.09;4140765;28;20041;-66
2022/03/16 07:47:29;;;;;;;30.48;22.42;;;;;;;7.37;75.00;101585.56;4133413;28;20046;-66
2022/03/16 07:49:41;;;;;;;24.98;20.98;;;;;;;7.43;74.58;101588.47;4140690;28;20050;-66
2022/03/16 07:51:44;;;;;;;28.08;22.13;;;;;;;7.54;73.98;101585.47;4146522;28;20056;-66
2022/03/16 07:53:48;;;;;;;28.77;21.88;;;;;;;7.62;74.22;101585.00;4137011;28;20061;-67
2022/03/16 07:55:55;;;;;;;28.00;22.33;;;;;;;7.72;73.49;101591.44;4142495;28;20046;-67
2022/03/16 07:57:58;;;;;;;24.70;19.92;;;;;;;7.83;72.94;101595.38;4143409;28;20101;-67
2022/03/16 08:00:00;;;;;;;27.13;21.15;;;;;;;7.78;72.82;101590.81;4140614;28;20466;-66
2022/03/16 08:02:05;;;;;;;26.73;20.83;;;;;;;7.69;73.08;101593.88;4144689;28;20043;-66
2022/03/16 08:04:08;;;;;;;27.63;20.73;;;;;;;7.71;72.92;101599.13;4143416;28;20049;-67
2022/03/16 08:06:11;;;;;;;26.90;22.17;;;;;;;7.73;73.83;101597.50;4133930;28;20046;-66
2022/03/16 08:08:14;;;;;;;25.10;20.20;;;;;;;7.82;73.94;101595.31;4138271;28;20046;-67
2022/03/16 08:10:18;;;;;;;25.55;21.73;;;;;;;7.86;73.82;101592.94;4139031;28;20043;-67
2022/03/16 08:12:21;;;;;;;27.55;21.00;;;;;;;7.86;73.01;101592.06;4138876;28;20069;-68
2022/03/16 08:14:23;;;;;;;24.90;20.58;;;;;;;7.93;72.81;101594.09;4133413;28;20031;-66
2022/03/16 08:16:27;;;;;;;24.60;19.35;;;;;;;8.00;73.41;101590.94;4145908;28;20503;-66
2022/03/16 08:18:30;;;;;;;26.08;21.20;;;;;;;8.04;73.90;101592.84;4140169;28;20466;-66
2022/03/16 08:20:32;;;;;;;27.77;21.35;;;;;;;8.13;73.49;101586.28;4143690;28;20064;-66
2022/03/16 08:22:36;;;;;;;27.15;20.75;;;;;;;8.23;74.16;101596.22;4148695;28;20104;-67
2022/03/16 08:24:39;;;;;;;23.27;19.77;;;;;;;8.22;73.92;101597.03;4134700;28;20455;-66
2022/03/16 08:26:54;;;;;;;24.38;19.33;;;;;;;8.30;73.59;101589.59;4147324;28;20050;-67
2022/03/16 08:28:57;;;;;;;26.98;22.08;;;;;;;8.35;73.31;101588.97;4149202;28;20092;-66
2022/03/16 08:31:01;;;;;;;25.70;21.50;;;;;;;8.39;73.18;101580.47;4143092;28;20041;-67
2022/03/16 08:33:04;;;;;;;25.65;19.92;;;;;;;8.43;73.46;101586.69;4141027;28;20052;-66
2022/03/16 08:35:07;;;;;;;27.13;22.95;;;;;;;8.53;73.61;101590.56;4149330;28;20064;-66
2022/03/16 08:37:10;;;;;;;26.17;22.13;;;;;;;8.71;72.52;101573.16;4149091;28;20065;-66
2022/03/16 08:39:13;;;;;;;25.63;21.75;;;;;;;8.79;71.13;101569.97;4147609;28;20077;-66
2022/03/16 08:41:16;;;;;;;25.02;20.88;;;;;;;8.80;70.11;101569.16;4141887;28;20054;-66
2022/03/16 08:43:20;;;;;;;23.23;20.00;;;;;;;8.77;69.92;101571.63;4144378;28;20051;-66
2022/03/16 08:45:23;;;;;;;27.20;19.98;;;;;;;8.79;68.87;101572.56;4141127;28;20052;-66
2022/03/16 08:47:25;;;;;;;24.83;17.30;;;;;;;8.73;69.10;101570.63;4149476;28;20099;-66
2022/03/16 08:49:29;;;;;;;22.83;18.13;;;;;;;8.73;69.42;101568.94;4139900;28;20096;-66
2022/03/16 08:51:32;;;;;;;22.67;18.85;;;;;;;8.72;70.38;101571.47;4141369;28;20089;-66
2022/03/16 08:53:37;;;;;;;24.50;20.88;;;;;;;8.77;71.10;101561.25;4140439;28;20046;-66
2022/03/16 08:55:39;;;;;;;23.08;19.23;;;;;;;8.80;70.69;101561.38;4145208;28;20101;-66
2022/03/16 08:57:43;;;;;;;21.95;17.17;;;;;;;8.82;70.47;101570.09;4143942;28;20057;-66
2022/03/16 08:59:47;;;;;;;20.52;17.50;;;;;;;8.86;70.92;101561.63;4150741;28;20037;-66
2022/03/16 09:01:51;;;;;;;21.75;19.00;;;;;;;8.93;71.13;101563.63;4144399;28;20046;-67
2022/03/16 09:03:54;;;;;;;20.80;17.27;;;;;;;9.01;71.06;101561.31;4162329;28;20041;-66
2022/03/16 09:05:57;;;;;;;28.73;19.80;;;;;;;9.04;71.03;101562.34;4139221;28;20038;-68
2022/03/16 09:08:00;;;;;;;18.45;15.93;;;;;;;9.11;70.42;101560.84;4149675;28;20393;-66
2022/03/16 09:10:03;;;;;;;21.00;18.13;;;;;;;9.16;70.33;101559.31;4143609;28;20044;-66
2022/03/16 09:12:08;;;;;;;19.30;16.23;;;;;;;9.19;70.25;101556.84;4136508;28;20052;-66
2022/03/16 09:14:10;;;;;;;19.77;17.65;;;;;;;9.25;70.35;101562.25;4147681;28;20079;-67
2022/03/16 09:16:14;;;;;;;17.15;14.65;;;;;;;9.20;69.81;101560.31;4146376;28;20045;-66
2022/03/16 09:18:18;;;;;;;21.48;15.98;;;;;;;9.29;69.32;101554.56;4140425;28;20054;-66
2022/03/16 09:20:25;;;;;;;20.75;17.48;;;;;;;9.46;67.86;101543.09;4147638;28;20124;-66
2022/03/16 09:22:28;;;;;;;18.67;15.60;;;;;;;9.33;68.00;101541.78;4143624;28;20511;-66
2022/03/16 09:24:31;;;;;;;21.60;17.63;;;;;;;9.38;68.85;101535.03;4141675;28;20381;-66
2022/03/16 09:26:35;;;;;;;25.63;19.35;;;;;;;9.52;68.62;101542.44;4141792;28;20044;-66
2022/03/16 09:28:38;;;;;;;22.15;18.58;;;;;;;9.64;66.73;101537.69;4141219;28;20511;-67